Terminal Aerodrome Forecast
Issued by NWS

Home | Current Version | Previous Version | Text Only | Print | Product List | Glossary On
Versions: 1 2 3 4 5 6 7 8 9 10 11 12 13 14 15 16 17 18
000
FTUS44 KHGX 191722
TAFUTS
TAF
KUTS 191722Z 1918/2018 18008KT P6SM VCSH SCT030
     FM200000 17005KT P6SM BKN250
     FM200900 18005KT 4SM BR OVC007
     FM201400 20007KT P6SM SCT007 BKN015=

USA.gov is the U.S. government's official web portal to all federal, state and local government web resources and services.